sensor_id;sensor_type;location;lat;lon;timestamp;P1;durP1;ratioP1;P2;durP2;ratioP2
65759;SDS011;52496;51.082;5.066;2022-07-01T00:02:01;17.23;;;7.72;;
65759;SDS011;52496;51.082;5.066;2022-07-01T00:04:32;12.98;;;5.57;;
65759;SDS011;52496;51.082;5.066;2022-07-01T00:07:02;17.85;;;6.43;;
65759;SDS011;52496;51.082;5.066;2022-07-01T00:09:33;13.40;;;5.70;;
65759;SDS011;52496;51.082;5.066;2022-07-01T00:12:04;18.30;;;6.60;;
65759;SDS011;52496;51.082;5.066;2022-07-01T00:14:35;14.10;;;6.43;;
65759;SDS011;52496;51.082;5.066;2022-07-01T00:17:07;14.00;;;6.03;;
65759;SDS011;52496;51.082;5.066;2022-07-01T00:19:37;11.88;;;5.95;;
65759;SDS011;52496;51.082;5.066;2022-07-01T00:22:08;10.35;;;5.55;;
65759;SDS011;52496;51.082;5.066;2022-07-01T00:24:38;8.75;;;4.97;;
65759;SDS011;52496;51.082;5.066;2022-07-01T00:27:09;10.80;;;5.47;;
65759;SDS011;52496;51.082;5.066;2022-07-01T00:29:39;14.43;;;6.05;;
65759;SDS011;52496;51.082;5.066;2022-07-01T00:32:10;14.60;;;5.88;;
65759;SDS011;52496;51.082;5.066;2022-07-01T00:34:40;12.63;;;5.90;;
65759;SDS011;52496;51.082;5.066;2022-07-01T00:37:11;14.65;;;6.03;;
65759;SDS011;52496;51.082;5.066;2022-07-01T00:39:41;12.05;;;5.93;;
65759;SDS011;52496;51.082;5.066;2022-07-01T00:42:12;11.50;;;5.43;;
65759;SDS011;52496;51.082;5.066;2022-07-01T00:44:42;17.02;;;6.80;;
65759;SDS011;52496;51.082;5.066;2022-07-01T00:47:13;19.85;;;6.15;;
65759;SDS011;52496;51.082;5.066;2022-07-01T00:49:44;10.07;;;4.88;;
65759;SDS011;52496;51.082;5.066;2022-07-01T00:52:14;12.30;;;5.15;;
65759;SDS011;52496;51.082;5.066;2022-07-01T00:54:45;8.93;;;4.88;;
65759;SDS011;52496;51.082;5.066;2022-07-01T00:57:16;9.68;;;4.88;;
65759;SDS011;52496;51.082;5.066;2022-07-01T00:59:46;12.75;;;4.93;;
65759;SDS011;52496;51.082;5.066;2022-07-01T01:02:17;8.45;;;4.88;;
65759;SDS011;52496;51.082;5.066;2022-07-01T01:04:47;14.52;;;5.10;;
65759;SDS011;52496;51.082;5.066;2022-07-01T01:07:18;15.05;;;5.18;;
65759;SDS011;52496;51.082;5.066;2022-07-01T01:09:49;12.05;;;4.40;;
65759;SDS011;52496;51.082;5.066;2022-07-01T01:12:20;12.63;;;5.15;;
65759;SDS011;52496;51.082;5.066;2022-07-01T01:14:52;15.13;;;6.00;;
65759;SDS011;52496;51.082;5.066;2022-07-01T01:17:23;14.27;;;6.38;;
65759;SDS011;52496;51.082;5.066;2022-07-01T01:19:54;16.58;;;5.85;;
65759;SDS011;52496;51.082;5.066;2022-07-01T01:22:24;14.38;;;6.10;;
65759;SDS011;52496;51.082;5.066;2022-07-01T01:24:55;15.45;;;6.05;;
65759;SDS011;52496;51.082;5.066;2022-07-01T01:27:27;14.70;;;6.03;;
65759;SDS011;52496;51.082;5.066;2022-07-01T01:29:58;12.15;;;4.97;;
65759;SDS011;52496;51.082;5.066;2022-07-01T01:32:28;14.48;;;5.85;;
65759;SDS011;52496;51.082;5.066;2022-07-01T01:34:59;11.80;;;6.10;;
65759;SDS011;52496;51.082;5.066;2022-07-01T01:37:30;11.13;;;5.80;;
65759;SDS011;52496;51.082;5.066;2022-07-01T01:40:01;19.80;;;7.32;;
65759;SDS011;52496;51.082;5.066;2022-07-01T01:42:32;16.85;;;6.70;;
65759;SDS011;52496;51.082;5.066;2022-07-01T01:45:03;16.58;;;6.68;;
65759;SDS011;52496;51.082;5.066;2022-07-01T01:47:34;14.50;;;6.57;;
65759;SDS011;52496;51.082;5.066;2022-07-01T01:50:05;16.42;;;6.50;;
65759;SDS011;52496;51.082;5.066;2022-07-01T01:52:36;13.55;;;6.30;;
65759;SDS011;52496;51.082;5.066;2022-07-01T01:55:09;17.13;;;7.28;;
65759;SDS011;52496;51.082;5.066;2022-07-01T01:57:39;14.93;;;7.07;;
65759;SDS011;52496;51.082;5.066;2022-07-01T02:00:10;22.67;;;7.18;;
65759;SDS011;52496;51.082;5.066;2022-07-01T02:02:41;16.23;;;7.15;;
65759;SDS011;52496;51.082;5.066;2022-07-01T02:05:12;22.15;;;7.75;;
65759;SDS011;52496;51.082;5.066;2022-07-01T02:07:44;17.48;;;6.82;;
65759;SDS011;52496;51.082;5.066;2022-07-01T02:10:15;14.63;;;6.75;;
65759;SDS011;52496;51.082;5.066;2022-07-01T02:12:45;19.50;;;8.75;;
65759;SDS011;52496;51.082;5.066;2022-07-01T02:15:17;17.42;;;6.88;;
65759;SDS011;52496;51.082;5.066;2022-07-01T02:17:48;15.80;;;7.13;;
65759;SDS011;52496;51.082;5.066;2022-07-01T02:20:18;16.85;;;7.40;;
65759;SDS011;52496;51.082;5.066;2022-07-01T02:22:49;17.95;;;7.25;;
65759;SDS011;52496;51.082;5.066;2022-07-01T02:25:20;18.83;;;7.43;;
65759;SDS011;52496;51.082;5.066;2022-07-01T02:27:51;18.42;;;7.05;;
65759;SDS011;52496;51.082;5.066;2022-07-01T02:30:21;15.70;;;7.75;;
65759;SDS011;52496;51.082;5.066;2022-07-01T02:32:52;15.27;;;7.88;;
65759;SDS011;52496;51.082;5.066;2022-07-01T02:35:22;17.13;;;7.07;;
65759;SDS011;52496;51.082;5.066;2022-07-01T02:37:53;14.65;;;7.30;;
65759;SDS011;52496;51.082;5.066;2022-07-01T02:40:23;12.45;;;6.00;;
65759;SDS011;52496;51.082;5.066;2022-07-01T02:42:54;17.50;;;8.23;;
65759;SDS011;52496;51.082;5.066;2022-07-01T02:45:24;16.75;;;7.57;;
65759;SDS011;52496;51.082;5.066;2022-07-01T02:47:55;12.98;;;6.75;;
65759;SDS011;52496;51.082;5.066;2022-07-01T02:50:26;14.93;;;7.13;;
65759;SDS011;52496;51.082;5.066;2022-07-01T02:52:56;13.82;;;6.78;;
65759;SDS011;52496;51.082;5.066;2022-07-01T02:55:27;19.42;;;8.07;;
65759;SDS011;52496;51.082;5.066;2022-07-01T02:57:59;18.80;;;8.20;;
65759;SDS011;52496;51.082;5.066;2022-07-01T03:00:29;20.17;;;7.63;;
65759;SDS011;52496;51.082;5.066;2022-07-01T03:03:00;18.23;;;8.13;;
65759;SDS011;52496;51.082;5.066;2022-07-01T03:05:30;14.27;;;7.15;;
65759;SDS011;52496;51.082;5.066;2022-07-01T03:08:01;14.13;;;7.18;;
65759;SDS011;52496;51.082;5.066;2022-07-01T03:10:31;13.57;;;7.70;;
65759;SDS011;52496;51.082;5.066;2022-07-01T03:13:02;12.40;;;6.90;;
65759;SDS011;52496;51.082;5.066;2022-07-01T03:15:32;16.85;;;6.55;;
65759;SDS011;52496;51.082;5.066;2022-07-01T03:18:03;16.02;;;6.97;;
65759;SDS011;52496;51.082;5.066;2022-07-01T03:20:34;12.20;;;6.40;;
65759;SDS011;52496;51.082;5.066;2022-07-01T03:23:04;15.35;;;6.70;;
65759;SDS011;52496;51.082;5.066;2022-07-01T03:25:34;16.02;;;7.28;;
65759;SDS011;52496;51.082;5.066;2022-07-01T03:28:06;17.98;;;7.88;;
65759;SDS011;52496;51.082;5.066;2022-07-01T03:30:37;16.92;;;8.07;;
65759;SDS011;52496;51.082;5.066;2022-07-01T03:33:07;16.67;;;7.15;;
65759;SDS011;52496;51.082;5.066;2022-07-01T03:35:38;13.35;;;7.03;;
65759;SDS011;52496;51.082;5.066;2022-07-01T03:38:15;25.30;;;8.82;;
65759;SDS011;52496;51.082;5.066;2022-07-01T03:40:46;19.67;;;9.50;;
65759;SDS011;52496;51.082;5.066;2022-07-01T03:43:16;20.00;;;8.55;;
65759;SDS011;52496;51.082;5.066;2022-07-01T03:45:47;22.02;;;8.15;;
65759;SDS011;52496;51.082;5.066;2022-07-01T03:48:17;22.00;;;8.77;;
65759;SDS011;52496;51.082;5.066;2022-07-01T03:50:48;18.58;;;8.57;;
65759;SDS011;52496;51.082;5.066;2022-07-01T03:53:19;20.77;;;9.13;;
65759;SDS011;52496;51.082;5.066;2022-07-01T03:56:24;17.48;;;7.45;;
65759;SDS011;52496;51.082;5.066;2022-07-01T03:58:55;18.35;;;8.38;;
65759;SDS011;52496;51.082;5.066;2022-07-01T04:01:25;18.58;;;8.00;;
65759;SDS011;52496;51.082;5.066;2022-07-01T04:03:56;18.92;;;8.45;;
65759;SDS011;52496;51.082;5.066;2022-07-01T04:06:27;15.60;;;8.10;;
65759;SDS011;52496;51.082;5.066;2022-07-01T04:08:58;16.73;;;7.82;;
65759;SDS011;52496;51.082;5.066;2022-07-01T04:11:28;17.25;;;7.90;;
65759;SDS011;52496;51.082;5.066;2022-07-01T04:14:00;19.77;;;8.88;;
65759;SDS011;52496;51.082;5.066;2022-07-01T04:16:30;17.42;;;9.00;;
65759;SDS011;52496;51.082;5.066;2022-07-01T04:19:01;22.02;;;8.30;;
65759;SDS011;52496;51.082;5.066;2022-07-01T04:21:32;15.48;;;7.53;;
65759;SDS011;52496;51.082;5.066;2022-07-01T04:24:21;18.05;;;8.27;;
65759;SDS011;52496;51.082;5.066;2022-07-01T04:26:54;20.25;;;8.68;;
65759;SDS011;52496;51.082;5.066;2022-07-01T04:29:25;29.90;;;9.63;;
65759;SDS011;52496;51.082;5.066;2022-07-01T04:31:56;19.58;;;8.38;;
65759;SDS011;52496;51.082;5.066;2022-07-01T04:34:27;16.48;;;7.35;;
65759;SDS011;52496;51.082;5.066;2022-07-01T04:36:58;25.60;;;9.27;;
65759;SDS011;52496;51.082;5.066;2022-07-01T04:39:28;22.83;;;8.73;;
65759;SDS011;52496;51.082;5.066;2022-07-01T04:41:59;15.00;;;8.02;;
65759;SDS011;52496;51.082;5.066;2022-07-01T04:44:33;14.90;;;8.25;;
65759;SDS011;52496;51.082;5.066;2022-07-01T04:47:05;19.95;;;7.97;;
65759;SDS011;52496;51.082;5.066;2022-07-01T04:49:36;18.02;;;8.52;;
65759;SDS011;52496;51.082;5.066;2022-07-01T04:52:06;17.60;;;7.97;;
65759;SDS011;52496;51.082;5.066;2022-07-01T04:54:37;20.00;;;9.07;;
65759;SDS011;52496;51.082;5.066;2022-07-01T04:57:07;15.48;;;7.85;;
65759;SDS011;52496;51.082;5.066;2022-07-01T04:59:38;21.00;;;8.25;;
65759;SDS011;52496;51.082;5.066;2022-07-01T05:02:08;17.27;;;7.47;;
65759;SDS011;52496;51.082;5.066;2022-07-01T05:04:39;17.73;;;7.63;;
65759;SDS011;52496;51.082;5.066;2022-07-01T05:07:10;16.75;;;8.55;;
65759;SDS011;52496;51.082;5.066;2022-07-01T05:09:57;21.13;;;8.25;;
65759;SDS011;52496;51.082;5.066;2022-07-01T05:12:31;21.27;;;8.52;;
65759;SDS011;52496;51.082;5.066;2022-07-01T05:15:01;18.67;;;8.07;;
65759;SDS011;52496;51.082;5.066;2022-07-01T05:17:33;15.73;;;7.30;;
65759;SDS011;52496;51.082;5.066;2022-07-01T05:20:22;20.30;;;7.97;;
65759;SDS011;52496;51.082;5.066;2022-07-01T05:23:11;18.13;;;7.65;;
65759;SDS011;52496;51.082;5.066;2022-07-01T05:25:42;18.23;;;8.13;;
65759;SDS011;52496;51.082;5.066;2022-07-01T05:28:12;17.58;;;7.45;;
65759;SDS011;52496;51.082;5.066;2022-07-01T05:30:43;16.00;;;8.00;;
65759;SDS011;52496;51.082;5.066;2022-07-01T05:33:14;14.98;;;6.85;;
65759;SDS011;52496;51.082;5.066;2022-07-01T05:35:45;19.58;;;7.53;;
65759;SDS011;52496;51.082;5.066;2022-07-01T05:38:15;18.38;;;7.97;;
65759;SDS011;52496;51.082;5.066;2022-07-01T05:40:45;15.65;;;7.40;;
65759;SDS011;52496;51.082;5.066;2022-07-01T05:43:16;16.10;;;7.97;;
65759;SDS011;52496;51.082;5.066;2022-07-01T05:45:46;16.67;;;7.47;;
65759;SDS011;52496;51.082;5.066;2022-07-01T05:48:17;17.98;;;7.95;;
65759;SDS011;52496;51.082;5.066;2022-07-01T05:50:48;17.67;;;7.57;;
65759;SDS011;52496;51.082;5.066;2022-07-01T05:53:20;15.45;;;7.38;;
65759;SDS011;52496;51.082;5.066;2022-07-01T05:55:50;16.38;;;7.88;;
65759;SDS011;52496;51.082;5.066;2022-07-01T05:58:22;15.75;;;8.10;;
65759;SDS011;52496;51.082;5.066;2022-07-01T06:00:52;16.00;;;8.25;;
65759;SDS011;52496;51.082;5.066;2022-07-01T06:03:23;20.60;;;9.48;;
65759;SDS011;52496;51.082;5.066;2022-07-01T06:05:54;18.20;;;8.02;;
65759;SDS011;52496;51.082;5.066;2022-07-01T06:08:24;20.55;;;8.45;;
65759;SDS011;52496;51.082;5.066;2022-07-01T06:10:55;15.90;;;7.38;;
65759;SDS011;52496;51.082;5.066;2022-07-01T06:13:26;16.05;;;7.85;;
65759;SDS011;52496;51.082;5.066;2022-07-01T06:15:58;12.77;;;6.97;;
65759;SDS011;52496;51.082;5.066;2022-07-01T06:18:29;15.63;;;7.03;;
65759;SDS011;52496;51.082;5.066;2022-07-01T06:21:00;12.23;;;6.68;;
65759;SDS011;52496;51.082;5.066;2022-07-01T06:23:31;11.75;;;5.97;;
65759;SDS011;52496;51.082;5.066;2022-07-01T06:26:01;10.90;;;6.53;;
65759;SDS011;52496;51.082;5.066;2022-07-01T06:28:31;12.38;;;6.18;;
65759;SDS011;52496;51.082;5.066;2022-07-01T06:31:02;10.63;;;5.50;;
65759;SDS011;52496;51.082;5.066;2022-07-01T06:33:33;15.68;;;5.93;;
65759;SDS011;52496;51.082;5.066;2022-07-01T06:36:03;14.38;;;6.43;;
65759;SDS011;52496;51.082;5.066;2022-07-01T06:38:34;10.48;;;5.53;;
65759;SDS011;52496;51.082;5.066;2022-07-01T06:41:05;12.95;;;5.43;;
65759;SDS011;52496;51.082;5.066;2022-07-01T06:44:02;10.85;;;6.28;;
65759;SDS011;52496;51.082;5.066;2022-07-01T06:46:34;12.25;;;5.53;;
65759;SDS011;52496;51.082;5.066;2022-07-01T06:49:05;10.50;;;5.13;;
65759;SDS011;52496;51.082;5.066;2022-07-01T06:51:36;10.77;;;5.07;;
65759;SDS011;52496;51.082;5.066;2022-07-01T06:54:06;10.55;;;4.43;;
65759;SDS011;52496;51.082;5.066;2022-07-01T06:56:37;8.15;;;4.80;;
65759;SDS011;52496;51.082;5.066;2022-07-01T06:59:07;10.55;;;4.45;;
65759;SDS011;52496;51.082;5.066;2022-07-01T07:01:38;15.77;;;6.45;;
65759;SDS011;52496;51.082;5.066;2022-07-01T07:04:09;8.00;;;3.92;;
65759;SDS011;52496;51.082;5.066;2022-07-01T07:06:39;8.02;;;3.42;;
65759;SDS011;52496;51.082;5.066;2022-07-01T07:09:10;9.27;;;3.75;;
65759;SDS011;52496;51.082;5.066;2022-07-01T07:11:40;9.70;;;3.25;;
65759;SDS011;52496;51.082;5.066;2022-07-01T07:14:11;8.57;;;3.63;;
65759;SDS011;52496;51.082;5.066;2022-07-01T07:16:43;9.35;;;3.10;;
65759;SDS011;52496;51.082;5.066;2022-07-01T07:19:13;7.75;;;3.63;;
65759;SDS011;52496;51.082;5.066;2022-07-01T07:21:44;10.68;;;2.85;;
65759;SDS011;52496;51.082;5.066;2022-07-01T07:24:14;8.77;;;3.17;;
65759;SDS011;52496;51.082;5.066;2022-07-01T07:26:45;6.75;;;2.33;;
65759;SDS011;52496;51.082;5.066;2022-07-01T07:29:15;7.28;;;2.58;;
65759;SDS011;52496;51.082;5.066;2022-07-01T07:31:46;6.95;;;2.85;;
65759;SDS011;52496;51.082;5.066;2022-07-01T07:34:16;6.07;;;2.45;;
65759;SDS011;52496;51.082;5.066;2022-07-01T07:36:47;5.95;;;2.20;;
65759;SDS011;52496;51.082;5.066;2022-07-01T07:39:18;4.35;;;2.35;;
65759;SDS011;52496;51.082;5.066;2022-07-01T07:41:48;6.05;;;2.70;;
65759;SDS011;52496;51.082;5.066;2022-07-01T07:44:19;5.25;;;2.30;;
65759;SDS011;52496;51.082;5.066;2022-07-01T07:46:50;5.30;;;2.22;;
65759;SDS011;52496;51.082;5.066;2022-07-01T07:49:20;8.30;;;2.15;;
65759;SDS011;52496;51.082;5.066;2022-07-01T07:51:51;7.55;;;2.38;;
65759;SDS011;52496;51.082;5.066;2022-07-01T07:54:23;5.70;;;2.15;;
65759;SDS011;52496;51.082;5.066;2022-07-01T07:56:53;7.60;;;2.13;;
65759;SDS011;52496;51.082;5.066;2022-07-01T07:59:24;7.40;;;2.20;;
65759;SDS011;52496;51.082;5.066;2022-07-01T08:01:54;9.32;;;2.03;;
65759;SDS011;52496;51.082;5.066;2022-07-01T08:04:25;4.60;;;1.73;;
65759;SDS011;52496;51.082;5.066;2022-07-01T08:06:55;4.60;;;1.80;;
65759;SDS011;52496;51.082;5.066;2022-07-01T08:09:26;4.60;;;2.22;;
65759;SDS011;52496;51.082;5.066;2022-07-01T08:11:57;5.30;;;1.80;;
65759;SDS011;52496;51.082;5.066;2022-07-01T08:14:27;6.20;;;2.65;;
65759;SDS011;52496;51.082;5.066;2022-07-01T08:16:58;3.55;;;1.60;;
65759;SDS011;52496;51.082;5.066;2022-07-01T08:19:28;4.35;;;1.83;;
65759;SDS011;52496;51.082;5.066;2022-07-01T08:21:58;6.85;;;1.98;;
65759;SDS011;52496;51.082;5.066;2022-07-01T08:24:29;4.75;;;1.70;;
65759;SDS011;52496;51.082;5.066;2022-07-01T08:27:00;10.63;;;2.13;;
65759;SDS011;52496;51.082;5.066;2022-07-01T08:29:30;4.60;;;1.60;;
65759;SDS011;52496;51.082;5.066;2022-07-01T08:32:01;5.95;;;1.77;;
65759;SDS011;52496;51.082;5.066;2022-07-01T08:34:31;3.35;;;1.25;;
65759;SDS011;52496;51.082;5.066;2022-07-01T08:37:02;3.35;;;1.42;;
65759;SDS011;52496;51.082;5.066;2022-07-01T08:39:33;7.30;;;1.83;;
65759;SDS011;52496;51.082;5.066;2022-07-01T08:42:04;5.70;;;1.67;;
65759;SDS011;52496;51.082;5.066;2022-07-01T08:44:37;5.45;;;1.35;;
65759;SDS011;52496;51.082;5.066;2022-07-01T08:47:10;3.20;;;1.30;;
65759;SDS011;52496;51.082;5.066;2022-07-01T08:49:42;2.95;;;1.27;;
65759;SDS011;52496;51.082;5.066;2022-07-01T08:52:14;5.47;;;1.80;;
65759;SDS011;52496;51.082;5.066;2022-07-01T08:54:44;7.70;;;1.63;;
65759;SDS011;52496;51.082;5.066;2022-07-01T08:57:19;5.75;;;1.58;;
65759;SDS011;52496;51.082;5.066;2022-07-01T09:00:04;4.13;;;1.20;;
65759;SDS011;52496;51.082;5.066;2022-07-01T09:05:32;3.22;;;1.42;;
65759;SDS011;52496;51.082;5.066;2022-07-01T09:08:03;4.07;;;1.27;;
65759;SDS011;52496;51.082;5.066;2022-07-01T09:10:35;3.28;;;1.50;;
65759;SDS011;52496;51.082;5.066;2022-07-01T09:13:07;5.03;;;1.40;;
65759;SDS011;52496;51.082;5.066;2022-07-01T09:15:40;3.55;;;1.48;;
65759;SDS011;52496;51.082;5.066;2022-07-01T09:18:17;3.20;;;1.23;;
65759;SDS011;52496;51.082;5.066;2022-07-01T09:20:50;4.78;;;1.20;;
65759;SDS011;52496;51.082;5.066;2022-07-01T09:23:21;7.55;;;1.55;;
65759;SDS011;52496;51.082;5.066;2022-07-01T09:25:51;5.55;;;1.45;;
65759;SDS011;52496;51.082;5.066;2022-07-01T09:28:25;7.63;;;1.63;;
65759;SDS011;52496;51.082;5.066;2022-07-01T09:30:57;4.85;;;1.58;;
65759;SDS011;52496;51.082;5.066;2022-07-01T09:33:28;3.90;;;1.40;;
65759;SDS011;52496;51.082;5.066;2022-07-01T09:35:59;3.83;;;1.70;;
65759;SDS011;52496;51.082;5.066;2022-07-01T09:38:29;6.75;;;1.60;;
65759;SDS011;52496;51.082;5.066;2022-07-01T09:41:01;6.97;;;1.38;;
65759;SDS011;52496;51.082;5.066;2022-07-01T09:43:34;6.07;;;1.55;;
65759;SDS011;52496;51.082;5.066;2022-07-01T09:46:09;4.72;;;1.50;;
65759;SDS011;52496;51.082;5.066;2022-07-01T09:48:44;5.72;;;2.03;;
65759;SDS011;52496;51.082;5.066;2022-07-01T09:51:15;6.07;;;1.83;;
65759;SDS011;52496;51.082;5.066;2022-07-01T09:53:46;5.50;;;1.73;;
65759;SDS011;52496;51.082;5.066;2022-07-01T09:56:16;3.05;;;1.33;;
65759;SDS011;52496;51.082;5.066;2022-07-01T09:58:46;4.35;;;1.35;;
65759;SDS011;52496;51.082;5.066;2022-07-01T10:01:17;5.85;;;1.75;;
65759;SDS011;52496;51.082;5.066;2022-07-01T10:03:48;2.58;;;1.58;;
65759;SDS011;52496;51.082;5.066;2022-07-01T10:06:27;2.53;;;1.27;;
65759;SDS011;52496;51.082;5.066;2022-07-01T10:09:18;6.47;;;1.55;;
65759;SDS011;52496;51.082;5.066;2022-07-01T10:14:31;7.22;;;1.63;;
65759;SDS011;52496;51.082;5.066;2022-07-01T10:17:02;3.60;;;1.30;;
65759;SDS011;52496;51.082;5.066;2022-07-01T10:19:33;3.95;;;1.92;;
65759;SDS011;52496;51.082;5.066;2022-07-01T10:33:32;1.95;;;1.30;;
65759;SDS011;52496;51.082;5.066;2022-07-01T10:41:30;5.38;;;1.70;;
65759;SDS011;52496;51.082;5.066;2022-07-01T10:44:06;4.68;;;1.90;;
65759;SDS011;52496;51.082;5.066;2022-07-01T10:59:49;3.63;;;1.58;;
65759;SDS011;52496;51.082;5.066;2022-07-01T11:02:25;4.20;;;1.60;;
65759;SDS011;52496;51.082;5.066;2022-07-01T11:05:03;4.07;;;1.65;;
65759;SDS011;52496;51.082;5.066;2022-07-01T11:07:35;4.40;;;1.63;;
65759;SDS011;52496;51.082;5.066;2022-07-01T11:10:09;2.85;;;1.33;;
65759;SDS011;52496;51.082;5.066;2022-07-01T11:12:44;4.70;;;1.67;;
65759;SDS011;52496;51.082;5.066;2022-07-01T11:15:18;4.18;;;1.67;;
65759;SDS011;52496;51.082;5.066;2022-07-01T11:17:49;5.95;;;1.77;;
65759;SDS011;52496;51.082;5.066;2022-07-01T11:20:21;4.22;;;1.80;;
65759;SDS011;52496;51.082;5.066;2022-07-01T11:22:52;4.10;;;1.92;;
65759;SDS011;52496;51.082;5.066;2022-07-01T11:25:23;5.22;;;2.20;;
65759;SDS011;52496;51.082;5.066;2022-07-01T11:27:54;8.50;;;2.78;;
65759;SDS011;52496;51.082;5.066;2022-07-01T11:30:24;4.30;;;2.08;;
65759;SDS011;52496;51.082;5.066;2022-07-01T11:32:56;7.80;;;2.50;;
65759;SDS011;52496;51.082;5.066;2022-07-01T11:35:29;4.80;;;1.92;;
65759;SDS011;52496;51.082;5.066;2022-07-01T11:38:20;8.07;;;2.40;;
65759;SDS011;52496;51.082;5.066;2022-07-01T11:41:32;6.07;;;2.47;;
65759;SDS011;52496;51.082;5.066;2022-07-01T11:44:04;8.32;;;2.45;;
65759;SDS011;52496;51.082;5.066;2022-07-01T11:46:37;6.65;;;2.25;;
65759;SDS011;52496;51.082;5.066;2022-07-01T11:49:11;5.03;;;2.25;;
65759;SDS011;52496;51.082;5.066;2022-07-01T11:51:43;5.63;;;2.10;;
65759;SDS011;52496;51.082;5.066;2022-07-01T11:54:24;4.85;;;2.10;;
65759;SDS011;52496;51.082;5.066;2022-07-01T11:57:06;5.03;;;1.92;;
65759;SDS011;52496;51.082;5.066;2022-07-01T11:59:39;6.35;;;2.30;;
65759;SDS011;52496;51.082;5.066;2022-07-01T12:02:10;3.85;;;1.95;;
65759;SDS011;52496;51.082;5.066;2022-07-01T12:04:42;6.00;;;2.10;;
65759;SDS011;52496;51.082;5.066;2022-07-01T12:07:14;4.63;;;2.30;;
65759;SDS011;52496;51.082;5.066;2022-07-01T12:09:46;4.40;;;2.10;;
65759;SDS011;52496;51.082;5.066;2022-07-01T12:12:18;4.10;;;1.95;;
65759;SDS011;52496;51.082;5.066;2022-07-01T12:14:51;3.92;;;1.85;;
65759;SDS011;52496;51.082;5.066;2022-07-01T12:17:24;4.20;;;2.00;;
65759;SDS011;52496;51.082;5.066;2022-07-01T12:19:55;3.70;;;1.70;;
65759;SDS011;52496;51.082;5.066;2022-07-01T12:22:26;4.35;;;2.15;;
65759;SDS011;52496;51.082;5.066;2022-07-01T12:25:07;6.65;;;2.42;;
65759;SDS011;52496;51.082;5.066;2022-07-01T12:27:41;4.72;;;2.05;;
65759;SDS011;52496;51.082;5.066;2022-07-01T12:30:22;3.45;;;1.80;;
65759;SDS011;52496;51.082;5.066;2022-07-01T12:32:55;4.28;;;1.90;;
65759;SDS011;52496;51.082;5.066;2022-07-01T12:35:26;3.58;;;2.00;;
65759;SDS011;52496;51.082;5.066;2022-07-01T12:38:05;3.83;;;1.60;;
65759;SDS011;52496;51.082;5.066;2022-07-01T12:40:37;2.80;;;1.67;;
65759;SDS011;52496;51.082;5.066;2022-07-01T12:43:21;4.70;;;1.70;;
65759;SDS011;52496;51.082;5.066;2022-07-01T12:45:53;4.80;;;1.98;;
65759;SDS011;52496;51.082;5.066;2022-07-01T12:48:24;3.10;;;1.60;;
65759;SDS011;52496;51.082;5.066;2022-07-01T12:50:55;4.85;;;2.10;;
65759;SDS011;52496;51.082;5.066;2022-07-01T12:53:27;5.20;;;1.77;;
65759;SDS011;52496;51.082;5.066;2022-07-01T12:55:58;5.53;;;1.90;;
65759;SDS011;52496;51.082;5.066;2022-07-01T12:58:31;5.03;;;1.75;;
65759;SDS011;52496;51.082;5.066;2022-07-01T13:01:01;5.43;;;2.10;;
65759;SDS011;52496;51.082;5.066;2022-07-01T13:03:32;5.30;;;1.80;;
65759;SDS011;52496;51.082;5.066;2022-07-01T13:06:03;4.93;;;2.00;;
65759;SDS011;52496;51.082;5.066;2022-07-01T13:08:34;5.65;;;2.10;;
65759;SDS011;52496;51.082;5.066;2022-07-01T13:11:04;5.53;;;2.28;;
65759;SDS011;52496;51.082;5.066;2022-07-01T13:13:36;6.25;;;2.05;;
65759;SDS011;52496;51.082;5.066;2022-07-01T13:16:06;3.17;;;1.50;;
65759;SDS011;52496;51.082;5.066;2022-07-01T13:18:37;2.55;;;1.60;;
65759;SDS011;52496;51.082;5.066;2022-07-01T13:21:07;3.30;;;1.85;;
65759;SDS011;52496;51.082;5.066;2022-07-01T13:23:38;5.45;;;1.90;;
65759;SDS011;52496;51.082;5.066;2022-07-01T13:26:08;5.22;;;1.75;;
65759;SDS011;52496;51.082;5.066;2022-07-01T13:28:39;3.75;;;1.55;;
65759;SDS011;52496;51.082;5.066;2022-07-01T13:31:10;5.47;;;1.83;;
65759;SDS011;52496;51.082;5.066;2022-07-01T13:33:40;4.20;;;1.50;;
65759;SDS011;52496;51.082;5.066;2022-07-01T13:36:11;3.58;;;1.50;;
65759;SDS011;52496;51.082;5.066;2022-07-01T13:38:41;4.68;;;1.40;;
65759;SDS011;52496;51.082;5.066;2022-07-01T13:41:13;3.03;;;1.77;;
65759;SDS011;52496;51.082;5.066;2022-07-01T13:43:43;6.13;;;1.60;;
65759;SDS011;52496;51.082;5.066;2022-07-01T13:46:14;2.50;;;1.42;;
65759;SDS011;52496;51.082;5.066;2022-07-01T13:48:44;4.82;;;1.52;;
65759;SDS011;52496;51.082;5.066;2022-07-01T13:51:15;2.88;;;1.58;;
65759;SDS011;52496;51.082;5.066;2022-07-01T13:53:45;3.03;;;1.30;;
65759;SDS011;52496;51.082;5.066;2022-07-01T13:56:17;2.55;;;1.50;;
65759;SDS011;52496;51.082;5.066;2022-07-01T13:58:47;2.85;;;1.60;;
65759;SDS011;52496;51.082;5.066;2022-07-01T14:01:21;3.58;;;1.60;;
65759;SDS011;52496;51.082;5.066;2022-07-01T14:03:54;3.33;;;2.08;;
65759;SDS011;52496;51.082;5.066;2022-07-01T14:06:25;3.83;;;1.60;;
65759;SDS011;52496;51.082;5.066;2022-07-01T14:08:55;2.47;;;1.20;;
65759;SDS011;52496;51.082;5.066;2022-07-01T14:11:26;3.15;;;1.60;;
65759;SDS011;52496;51.082;5.066;2022-07-01T14:13:56;5.38;;;1.70;;
65759;SDS011;52496;51.082;5.066;2022-07-01T14:16:27;5.25;;;1.50;;
65759;SDS011;52496;51.082;5.066;2022-07-01T14:18:59;3.47;;;1.20;;
65759;SDS011;52496;51.082;5.066;2022-07-01T14:21:30;3.00;;;1.63;;
65759;SDS011;52496;51.082;5.066;2022-07-01T14:24:02;4.85;;;1.55;;
65759;SDS011;52496;51.082;5.066;2022-07-01T14:26:34;3.90;;;1.65;;
65759;SDS011;52496;51.082;5.066;2022-07-01T14:29:04;3.58;;;1.50;;
65759;SDS011;52496;51.082;5.066;2022-07-01T14:31:35;2.10;;;1.40;;
65759;SDS011;52496;51.082;5.066;2022-07-01T14:34:05;2.22;;;1.42;;
65759;SDS011;52496;51.082;5.066;2022-07-01T14:36:36;2.85;;;1.35;;
65759;SDS011;52496;51.082;5.066;2022-07-01T14:39:06;2.65;;;1.23;;
65759;SDS011;52496;51.082;5.066;2022-07-01T14:41:37;2.67;;;1.50;;
65759;SDS011;52496;51.082;5.066;2022-07-01T14:44:07;3.60;;;1.15;;
65759;SDS011;52496;51.082;5.066;2022-07-01T14:46:37;4.45;;;0.98;;
65759;SDS011;52496;51.082;5.066;2022-07-01T14:49:08;3.15;;;1.40;;
65759;SDS011;52496;51.082;5.066;2022-07-01T14:51:39;2.35;;;0.95;;
65759;SDS011;52496;51.082;5.066;2022-07-01T14:54:09;2.92;;;1.40;;
65759;SDS011;52496;51.082;5.066;2022-07-01T14:56:41;3.15;;;1.20;;
65759;SDS011;52496;51.082;5.066;2022-07-01T14:59:12;3.67;;;1.10;;
65759;SDS011;52496;51.082;5.066;2022-07-01T15:01:45;3.67;;;1.30;;
65759;SDS011;52496;51.082;5.066;2022-07-01T15:04:15;4.05;;;1.70;;
65759;SDS011;52496;51.082;5.066;2022-07-01T15:06:46;3.78;;;1.30;;
65759;SDS011;52496;51.082;5.066;2022-07-01T15:09:16;3.92;;;1.50;;
65759;SDS011;52496;51.082;5.066;2022-07-01T15:11:51;4.75;;;1.30;;
65759;SDS011;52496;51.082;5.066;2022-07-01T15:14:21;3.70;;;1.70;;
65759;SDS011;52496;51.082;5.066;2022-07-01T15:16:52;3.70;;;1.50;;
65759;SDS011;52496;51.082;5.066;2022-07-01T15:19:22;4.00;;;1.60;;
65759;SDS011;52496;51.082;5.066;2022-07-01T15:21:53;3.47;;;1.27;;
65759;SDS011;52496;51.082;5.066;2022-07-01T15:24:24;3.30;;;1.60;;
65759;SDS011;52496;51.082;5.066;2022-07-01T15:26:55;3.38;;;1.63;;
65759;SDS011;52496;51.082;5.066;2022-07-01T15:29:26;4.55;;;1.60;;
65759;SDS011;52496;51.082;5.066;2022-07-01T15:31:56;2.67;;;1.27;;
65759;SDS011;52496;51.082;5.066;2022-07-01T15:34:28;4.13;;;1.83;;
65759;SDS011;52496;51.082;5.066;2022-07-01T15:36:59;2.00;;;1.23;;
65759;SDS011;52496;51.082;5.066;2022-07-01T15:39:30;3.95;;;1.70;;
65759;SDS011;52496;51.082;5.066;2022-07-01T15:42:01;4.15;;;1.50;;
65759;SDS011;52496;51.082;5.066;2022-07-01T15:44:32;3.15;;;1.17;;